Time;durP1;ratioP1;P1;durP2;ratioP2;P2;SDS_P1;SDS_P2;PMS_P1;PMS_P2;Temp;Humidity;BMP_temperature;BMP_pressure;BME280_temperature;BME280_humidity;BME280_pressure;Samples;Min_cycle;Max_cycle;Signal;HPM_P1;HPM_P2
2023/10/16 00:01:38;;;;;;;2.28;1.20;;;;;;;8.94;62.49;93734.63;4949446;28;20039;-77
2023/10/16 00:04:07;;;;;;;1.50;1.30;;;;;;;8.92;62.36;93728.81;4952883;28;20629;-78
2023/10/16 00:06:34;;;;;;;1.08;1.00;;;;;;;8.84;62.63;93750.78;4950707;28;20043;-77
2023/10/16 00:09:15;;;;;;;1.20;1.10;;;;;;;8.75;62.56;93740.13;4958717;28;20658;-78
2023/10/16 00:11:42;;;;;;;2.90;1.10;;;;;;;8.81;61.89;93743.41;4951539;28;20071;-78
2023/10/16 00:14:22;;;;;;;1.35;1.25;;;;;;;8.82;61.43;93729.88;4951744;28;20084;-78
2023/10/16 00:16:50;;;;;;;1.00;1.00;;;;;;;8.95;60.73;93749.44;4950875;28;20033;-78
2023/10/16 00:19:16;;;;;;;1.40;1.23;;;;;;;9.01;60.43;93759.59;4952613;28;20031;-78
2023/10/16 00:21:45;;;;;;;0.88;0.80;;;;;;;9.01;60.02;93737.59;4951860;28;20050;-78
2023/10/16 00:24:13;;;;;;;2.17;0.82;;;;;;;9.17;59.54;93767.22;4950266;28;20034;-77
2023/10/16 00:26:49;;;;;;;1.20;1.10;;;;;;;9.07;59.92;93770.88;4952889;28;20048;-79
2023/10/16 00:29:19;;;;;;;;;;;;;;;8.92;60.65;93761.44;4943530;28;20038;-77
2023/10/16 00:31:45;;;;;;;1.20;1.10;;;;;;;8.73;61.20;93741.50;4938535;28;19929;-77
2023/10/16 00:34:15;;;;;;;1.30;1.20;;;;;;;8.90;61.23;93762.84;4943617;28;20034;-79
2023/10/16 00:36:45;;;;;;;2.65;1.00;;;;;;;8.76;59.35;93772.72;4953692;28;20089;-78
2023/10/16 00:39:13;;;;;;;1.83;0.95;;;;;;;8.71;59.04;93797.47;4964215;28;20129;-79
2023/10/16 00:41:44;;;;;;;2.15;0.90;;;;;;;8.53;59.33;93793.91;4970714;28;20031;-78
2023/10/16 00:44:09;;;;;;;1.15;1.05;;;;;;;8.66;58.89;93800.25;4959080;28;20042;-78
2023/10/16 00:46:38;;;;;;;1.40;1.30;;;;;;;8.56;59.17;93801.25;4967251;28;20030;-77
2023/10/16 00:49:07;;;;;;;6.47;2.65;;;;;;;8.59;59.26;93819.25;4970328;28;20073;-77
2023/10/16 00:51:38;;;;;;;1.33;1.23;;;;;;;8.18;59.92;93778.03;4965402;28;20384;-79
2023/10/16 00:54:17;;;;;;;1.75;1.45;;;;;;;8.22;59.77;93773.72;4966969;28;20050;-79
2023/10/16 00:56:43;;;;;;;1.65;1.55;;;;;;;8.36;59.61;93791.16;4967448;28;20088;-77
2023/10/16 00:59:15;;;;;;;1.83;1.40;;;;;;;8.31;59.65;93785.19;4952227;28;20487;-79
2023/10/16 01:01:43;;;;;;;2.88;1.67;;;;;;;8.03;59.66;93752.66;4966411;28;20026;-78
2023/10/16 01:04:10;;;;;;;1.63;1.52;;;;;;;8.27;59.71;93808.81;4932631;28;20019;-80
2023/10/16 01:06:36;;;;;;;1.75;1.60;;;;;;;8.34;59.18;93806.56;4950613;28;20031;-77
2023/10/16 01:09:06;;;;;;;1.80;1.70;;;;;;;8.16;59.62;93802.19;4945791;28;20109;-78
2023/10/16 01:11:37;;;;;;;2.67;2.17;;;;;;;8.11;60.70;93834.88;4950332;28;20035;-78
2023/10/16 01:14:03;;;;;;;4.57;2.53;;;;;;;8.19;60.97;93848.47;4935708;28;20520;-79
2023/10/16 01:16:29;;;;;;;3.00;2.58;;;;;;;8.02;61.34;93812.03;4948899;28;20471;-78
2023/10/16 01:18:59;;;;;;;5.95;2.85;;;;;;;8.10;61.26;93835.16;4950222;28;20066;-79
2023/10/16 01:21:25;;;;;;;3.13;2.83;;;;;;;7.70;62.46;93813.66;4945528;28;20623;-77
2023/10/16 01:23:51;;;;;;;4.78;2.80;;;;;;;8.00;62.07;93832.72;4961653;28;20049;-79
2023/10/16 01:26:16;;;;;;;3.05;2.85;;;;;;;7.94;62.07;93816.13;4969814;28;20034;-77
2023/10/16 01:28:42;;;;;;;3.78;3.38;;;;;;;7.88;62.68;93848.28;4949994;28;20053;-79
2023/10/16 01:31:07;;;;;;;3.72;3.30;;;;;;;7.74;63.82;93856.25;4966573;28;20073;-77
2023/10/16 01:33:33;;;;;;;4.07;3.47;;;;;;;7.39;63.97;93812.66;4966702;28;20035;-77
2023/10/16 01:35:58;;;;;;;3.80;3.28;;;;;;;7.30;65.06;93838.22;4968595;28;20390;-79
2023/10/16 01:38:24;;;;;;;4.15;3.75;;;;;;;7.29;65.67;93850.66;4967401;28;20562;-78
2023/10/16 01:41:15;;;;;;;4.80;4.30;;;;;;;7.43;64.97;93832.19;4966950;28;20248;-78
2023/10/16 01:43:44;;;;;;;3.78;3.28;;;;;;;7.80;63.87;93867.53;4958095;28;20019;-78
2023/10/16 01:46:13;;;;;;;5.45;3.50;;;;;;;7.83;63.36;93864.28;4966780;28;20392;-79
2023/10/16 01:48:46;;;;;;;4.05;3.38;;;;;;;7.84;63.76;93874.59;4969834;28;20037;-77
2023/10/16 01:51:19;;;;;;;4.78;4.28;;;;;;;7.69;64.03;93865.03;4967596;28;20031;-77
2023/10/16 01:53:50;;;;;;;4.40;4.00;;;;;;;7.63;63.93;93858.25;4968335;28;20121;-78
2023/10/16 01:56:17;;;;;;;5.28;4.78;;;;;;;7.96;63.91;93888.13;4966094;28;20878;-78
2023/10/16 01:58:45;;;;;;;4.07;3.65;;;;;;;7.95;62.91;93875.19;4968692;28;20034;-79
2023/10/16 02:01:16;;;;;;;5.40;4.90;;;;;;;7.99;63.48;93905.28;4968873;28;20022;-76
2023/10/16 02:03:44;;;;;;;5.85;5.15;;;;;;;7.85;63.76;93891.25;4967996;28;20042;-78
2023/10/16 02:06:13;;;;;;;6.50;5.65;;;;;;;8.03;63.79;93933.53;4950697;28;20046;-79
2023/10/16 02:08:39;;;;;;;6.28;5.38;;;;;;;7.98;63.12;93932.84;4966940;28;20133;-77
2023/10/16 02:11:06;;;;;;;4.72;4.20;;;;;;;7.94;62.94;93921.28;4968138;28;20041;-79
2023/10/16 02:13:35;;;;;;;5.53;3.97;;;;;;;8.07;62.84;93923.16;4967274;28;20023;-79
2023/10/16 02:16:02;;;;;;;4.85;3.90;;;;;;;7.88;61.34;93864.19;4968708;28;20030;-79
2023/10/16 02:18:36;;;;;;;3.88;3.58;;;;;;;8.29;60.29;93925.91;4967988;28;20042;-78
2023/10/16 02:21:02;;;;;;;4.82;4.32;;;;;;;8.26;58.61;93933.66;4967168;28;20169;-79
2023/10/16 02:23:30;;;;;;;5.15;4.47;;;;;;;8.07;58.80;93931.13;4969204;28;20039;-78
2023/10/16 02:25:57;;;;;;;5.22;4.65;;;;;;;8.08;58.75;93935.31;4966297;28;20069;-78
2023/10/16 02:28:22;;;;;;;5.65;4.60;;;;;;;7.88;58.78;93904.69;4967832;28;20061;-77
2023/10/16 02:30:49;;;;;;;4.55;4.15;;;;;;;7.82;59.16;93891.84;4965642;28;20258;-78
2023/10/16 02:35:47;;;;;;;5.15;4.53;;;;;;;7.82;58.33;93915.69;4969065;28;20058;-78
2023/10/16 02:38:13;;;;;;;4.90;4.40;;;;;;;8.07;57.76;93931.13;4968219;28;20122;-77
2023/10/16 02:40:44;;;;;;;5.00;4.60;;;;;;;8.21;57.44;93942.50;4971239;28;20027;-78
2023/10/16 02:43:18;;;;;;;5.97;5.20;;;;;;;8.19;56.48;93943.84;4973472;28;20019;-79
2023/10/16 02:45:47;;;;;;;5.10;4.60;;;;;;;7.95;56.33;93906.97;4972861;28;20058;-77
2023/10/16 02:48:18;;;;;;;5.65;5.00;;;;;;;8.22;55.82;93952.00;4968298;28;20529;-78
2023/10/16 02:50:49;;;;;;;6.05;4.80;;;;;;;8.05;55.10;93923.44;4972183;28;20120;-77
2023/10/16 02:53:21;;;;;;;5.00;4.60;;;;;;;7.94;56.01;93951.19;4970170;28;20038;-78
2023/10/16 02:55:49;;;;;;;5.03;4.53;;;;;;;7.41;55.97;93889.91;4973074;28;20030;-78
2023/10/16 02:58:15;;;;;;;5.63;5.13;;;;;;;7.70;55.56;93935.44;4973127;28;20031;-78
2023/10/16 03:00:49;;;;;;;5.20;4.70;;;;;;;7.70;56.17;93959.25;4951255;28;20086;-78
2023/10/16 03:03:16;;;;;;;5.85;5.28;;;;;;;7.62;56.22;93961.81;4951893;28;20039;-78
2023/10/16 03:05:43;;;;;;;6.72;5.35;;;;;;;7.56;56.09;93953.16;4953236;28;20063;-77
2023/10/16 03:08:09;;;;;;;6.43;5.45;;;;;;;7.53;55.94;93935.19;4952008;28;20088;-78
2023/10/16 03:10:36;;;;;;;5.82;5.22;;;;;;;7.54;55.88;93950.00;4971197;28;20058;-77
2023/10/16 03:13:05;;;;;;;5.32;4.82;;;;;;;7.57;55.94;93946.78;4970677;28;20980;-79
2023/10/16 03:15:42;;;;;;;8.32;5.07;;;;;;;7.96;55.04;93970.25;4973731;28;20363;-78
2023/10/16 03:18:22;;;;;;;6.10;5.50;;;;;;;7.95;55.24;93976.59;4954515;28;20185;-78
2023/10/16 03:20:48;;;;;;;5.68;5.18;;;;;;;7.93;55.37;93985.91;4973664;28;20602;-79
2023/10/16 03:23:14;;;;;;;6.88;5.20;;;;;;;7.97;55.39;93997.50;4971098;28;20037;-77
2023/10/16 03:28:09;;;;;;;6.80;5.95;;;;;;;8.06;54.88;93995.75;4973473;28;20401;-78
2023/10/16 03:30:35;;;;;;;6.18;5.47;;;;;;;8.09;54.95;94005.75;4967765;28;20039;-78
2023/10/16 03:33:04;;;;;;;5.72;5.07;;;;;;;7.90;54.48;93966.09;4972022;28;20048;-78
2023/10/16 03:35:30;;;;;;;5.18;4.68;;;;;;;8.23;54.37;93998.59;4971246;28;20482;-78
2023/10/16 03:37:56;;;;;;;5.97;5.43;;;;;;;8.23;53.99;93998.59;4953264;28;20711;-78
2023/10/16 03:40:27;;;;;;;6.22;5.22;;;;;;;8.16;54.34;94008.81;4970144;28;22125;-79
2023/10/16 03:42:53;;;;;;;8.27;7.28;;;;;;;8.00;54.08;93989.75;4970622;28;20504;-78
2023/10/16 03:45:21;;;;;;;6.28;5.15;;;;;;;7.97;54.64;94002.81;4970945;28;20460;-78
2023/10/16 03:48:02;;;;;;;7.80;5.80;;;;;;;7.85;54.68;93997.19;4953739;28;20034;-78
2023/10/16 03:50:38;;;;;;;6.28;5.68;;;;;;;8.04;54.68;94005.84;4969937;28;20042;-79
2023/10/16 03:53:07;;;;;;;8.35;5.88;;;;;;;8.19;53.84;94004.78;4969963;28;20038;-79
2023/10/16 03:55:48;;;;;;;5.75;5.22;;;;;;;8.00;53.95;93999.56;4971876;28;20634;-79
2023/10/16 03:58:16;;;;;;;6.55;5.95;;;;;;;8.07;54.11;94018.53;4970254;28;20561;-77
2023/10/16 04:00:52;;;;;;;6.28;5.68;;;;;;;7.98;54.05;94013.09;4971675;28;20049;-77
2023/10/16 04:03:19;;;;;;;7.13;6.30;;;;;;;7.87;54.20;94005.63;4971306;28;20034;-79
2023/10/16 04:05:46;;;;;;;7.32;6.22;;;;;;;7.53;54.22;93969.59;4970589;28;20039;-77
2023/10/16 04:08:14;;;;;;;8.90;5.40;;;;;;;7.87;54.14;94021.53;4969668;28;20088;-78
2023/10/16 04:10:46;;;;;;;8.48;6.40;;;;;;;7.76;54.65;94036.78;4970948;28;20174;-77
2023/10/16 04:13:12;;;;;;;6.35;5.53;;;;;;;7.68;55.28;94045.34;4971311;28;20643;-77
2023/10/16 04:20:55;;;;;;;6.55;5.72;;;;;;;7.78;53.86;94024.03;4971022;28;20038;-78
2023/10/16 04:45:59;;;;;;;6.72;5.97;;;;;;;8.07;52.76;94112.00;4970472;28;20043;-78
2023/10/16 04:50:30;;;;;;;7.57;6.18;;;;;;;7.83;53.16;94107.88;4973822;28;21028;-79
2023/10/16 06:14:11;;;;;;;6.72;4.85;;;;;;;7.67;52.31;94224.59;4964340;28;20551;-78
2023/10/16 06:16:40;;;;;;;5.78;4.97;;;;;;;7.85;51.71;94246.88;4967934;28;20538;-78
2023/10/16 06:19:15;;;;;;;7.00;4.38;;;;;;;8.15;50.99;94269.53;4967657;28;20054;-78
2023/10/16 06:21:48;;;;;;;5.82;4.93;;;;;;;7.51;50.20;94177.41;4949377;28;20031;-79
2023/10/16 06:24:25;;;;;;;6.20;4.05;;;;;;;8.01;50.68;94255.41;4964451;28;20542;-78
2023/10/16 06:26:55;;;;;;;4.60;3.67;;;;;;;8.11;50.71;94252.63;4951742;28;20174;-77
2023/10/16 06:29:21;;;;;;;4.70;4.18;;;;;;;8.18;49.78;94260.22;4942831;28;20118;-79
2023/10/16 06:31:49;;;;;;;7.13;4.03;;;;;;;8.01;49.58;94263.38;4948031;28;21330;-78
2023/10/16 06:34:15;;;;;;;7.32;4.35;;;;;;;7.91;50.22;94277.53;4950316;28;20023;-78
2023/10/16 06:36:44;;;;;;;5.45;3.92;;;;;;;7.60;50.41;94207.47;4930234;28;20061;-78
2023/10/16 06:39:58;;;;;;;4.88;3.47;;;;;;;8.08;49.89;94266.44;4937415;28;20422;-78
2023/10/16 06:42:02;;;;;;;9.30;3.85;;;;;;;7.83;49.17;94201.34;4933955;28;20382;-77
2023/10/16 06:44:34;;;;;;;7.28;3.20;;;;;;;8.06;49.92;94228.88;4937313;28;20528;-76
2023/10/16 06:47:00;;;;;;;4.38;3.70;;;;;;;8.42;49.31;94267.00;4947624;28;20061;-77
2023/10/16 06:49:36;;;;;;;8.30;4.05;;;;;;;8.42;48.70;94272.31;4933208;28;20585;-79
2023/10/16 06:52:05;;;;;;;4.50;3.55;;;;;;;8.24;48.58;94262.50;4952930;28;20603;-78
2023/10/16 06:54:32;;;;;;;8.20;3.33;;;;;;;8.12;48.66;94276.16;4963423;28;20063;-79
2023/10/16 06:57:06;;;;;;;17.83;4.32;;;;;;;7.86;49.08;94274.94;4962743;28;20043;-79
2023/10/16 06:59:31;;;;;;;4.63;2.85;;;;;;;8.07;49.32;94280.78;4967193;28;20039;-78
2023/10/16 07:01:57;;;;;;;10.48;3.22;;;;;;;8.02;49.86;94264.94;4967791;28;20101;-78
2023/10/16 07:04:22;;;;;;;4.38;3.00;;;;;;;8.33;48.70;94289.94;4968579;28;20502;-78
2023/10/16 07:06:48;;;;;;;4.68;2.85;;;;;;;8.25;48.92;94295.09;4964272;28;20590;-79
2023/10/16 07:09:16;;;;;;;6.47;3.10;;;;;;;8.28;48.51;94290.00;4966963;28;20057;-78
2023/10/16 07:11:42;;;;;;;5.95;2.72;;;;;;;8.23;48.55;94292.72;4966932;28;20042;-78
2023/10/16 07:14:12;;;;;;;7.10;3.95;;;;;;;8.02;48.54;94286.13;4948203;28;20049;-78
2023/10/16 07:16:41;;;;;;;4.78;3.05;;;;;;;8.19;48.56;94296.22;4964979;28;20493;-79
2023/10/16 07:19:07;;;;;;;4.63;3.13;;;;;;;8.18;48.84;94284.84;4970772;28;20034;-77
2023/10/16 07:21:33;;;;;;;4.15;2.95;;;;;;;8.23;48.45;94284.78;4966382;28;20038;-78
2023/10/16 07:23:58;;;;;;;12.90;7.28;;;;;;;8.20;48.23;94285.34;4967179;28;20625;-80
2023/10/16 07:26:25;;;;;;;8.25;4.97;;;;;;;8.25;48.02;94263.31;4968254;28;20777;-78
2023/10/16 07:28:51;;;;;;;3.63;3.22;;;;;;;8.44;48.12;94275.47;4970974;28;20034;-79
2023/10/16 07:31:18;;;;;;;6.03;3.38;;;;;;;8.46;48.04;94261.94;4971815;28;20031;-78
2023/10/16 07:33:59;;;;;;;8.90;3.20;;;;;;;8.50;47.20;94261.06;4970360;28;20046;-80
2023/10/16 07:36:25;;;;;;;6.55;3.55;;;;;;;8.35;47.09;94218.88;4970377;28;20133;-77
2023/10/16 07:38:51;;;;;;;3.60;3.30;;;;;;;8.90;46.59;94264.91;4971749;28;20098;-77
2023/10/16 07:41:18;;;;;;;4.45;3.58;;;;;;;9.13;46.59;94275.72;4972010;28;20356;-77
2023/10/16 07:43:46;;;;;;;3.80;3.05;;;;;;;9.23;45.91;94291.47;4969810;28;20022;-77
2023/10/16 07:48:50;;;;;;;4.45;3.20;;;;;;;9.10;45.78;94290.31;4963983;28;20039;-79
2023/10/16 07:51:18;;;;;;;3.75;2.70;;;;;;;9.16;45.73;94291.84;4959080;28;20038;-79
2023/10/16 07:53:43;;;;;;;4.65;2.80;;;;;;;9.08;45.41;94279.22;4961498;28;20605;-78
2023/10/16 07:56:25;;;;;;;5.75;2.78;;;;;;;9.14;45.18;94272.78;4964872;28;20611;-79
2023/10/16 07:59:06;;;;;;;6.70;3.38;;;;;;;9.20;45.97;94271.59;4944874;28;20106;-77
2023/10/16 08:01:58;;;;;;;7.75;3.67;;;;;;;9.21;44.49;94251.16;4944473;28;20348;-78
2023/10/16 08:06:57;;;;;;;6.82;3.85;;;;;;;9.20;43.70;94271.59;4964387;28;20070;-79
2023/10/16 08:11:57;;;;;;;4.68;2.42;;;;;;;9.21;44.06;94280.34;4962404;28;20415;-78
2023/10/16 08:14:32;;;;;;;8.37;3.47;;;;;;;9.19;43.81;94258.63;4957957;28;20189;-79
2023/10/16 08:16:58;;;;;;;5.20;3.45;;;;;;;9.18;43.60;94257.84;4963998;28;20097;-79
2023/10/16 08:19:31;;;;;;;5.35;3.00;;;;;;;9.08;43.62;94236.75;4961222;28;20034;-79
2023/10/16 08:21:57;;;;;;;2.88;2.25;;;;;;;9.22;44.49;94242.09;4933217;28;20763;-79
2023/10/16 08:24:24;;;;;;;8.23;3.15;;;;;;;9.37;43.88;94247.94;4956720;28;20552;-79
2023/10/16 08:26:51;;;;;;;5.95;2.60;;;;;;;9.42;43.19;94237.22;4963636;28;20047;-78
2023/10/16 08:31:44;;;;;;;3.50;2.30;;;;;;;9.62;42.19;94272.41;4963323;28;20472;-80
2023/10/16 08:34:21;;;;;;;4.15;2.00;;;;;;;9.44;42.70;94242.22;4961873;28;20027;-77
2023/10/16 08:36:51;;;;;;;6.13;2.60;;;;;;;9.60;42.37;94258.63;4962999;28;20182;-78
2023/10/16 08:39:19;;;;;;;2.80;1.95;;;;;;;9.80;42.30;94276.81;4960750;28;20431;-78
2023/10/16 08:42:01;;;;;;;3.10;2.50;;;;;;;9.89;41.85;94288.31;4962318;28;20623;-77
2023/10/16 08:44:28;;;;;;;4.07;1.83;;;;;;;9.70;41.36;94292.97;4961905;28;20034;-77
2023/10/16 08:49:26;;;;;;;4.25;2.17;;;;;;;9.68;40.99;94284.53;4960991;28;20041;-76
2023/10/16 08:51:55;;;;;;;2.28;2.05;;;;;;;9.72;42.13;94266.91;4976741;28;20153;-78
2023/10/16 08:57:09;;;;;;;3.53;2.53;;;;;;;9.53;40.59;94231.72;4962558;28;20053;-78
2023/10/16 08:59:36;;;;;;;5.90;2.50;;;;;;;9.77;40.95;94272.91;4960639;28;20281;-77
2023/10/16 09:02:07;;;;;;;5.55;2.03;;;;;;;9.69;41.11;94252.34;4962785;28;20102;-76
2023/10/16 09:04:35;;;;;;;4.10;2.20;;;;;;;9.75;40.14;94282.25;4972758;28;20026;-77
2023/10/16 09:07:00;;;;;;;4.07;2.17;;;;;;;9.53;40.40;94274.19;4962151;28;20037;-76
2023/10/16 09:09:26;;;;;;;5.70;2.50;;;;;;;9.76;40.51;94289.13;4965240;28;20086;-77
2023/10/16 09:12:01;;;;;;;2.33;1.98;;;;;;;9.89;41.57;94289.13;4961279;28;20054;-76
2023/10/16 09:14:26;;;;;;;2.30;1.77;;;;;;;10.12;40.29;94292.63;4961376;28;20407;-77
2023/10/16 09:16:55;;;;;;;3.42;1.90;;;;;;;10.09;39.83;94282.59;4974678;28;20552;-76
2023/10/16 09:19:34;;;;;;;3.97;1.80;;;;;;;10.20;39.49;94283.97;4959295;28;20030;-77
2023/10/16 09:22:08;;;;;;;3.92;2.28;;;;;;;10.05;39.46;94283.50;4960779;28;20192;-78
2023/10/16 09:24:35;;;;;;;5.60;2.38;;;;;;;10.06;40.68;94282.41;4958786;28;20033;-76
2023/10/16 09:27:13;;;;;;;4.45;1.90;;;;;;;10.08;40.66;94286.34;4961295;28;20039;-78
2023/10/16 09:29:44;;;;;;;7.50;1.90;;;;;;;9.89;40.15;94275.03;4965235;28;20038;-76
2023/10/16 09:32:10;;;;;;;3.47;1.92;;;;;;;9.91;39.62;94280.84;4961959;28;20464;-76
2023/10/16 09:34:36;;;;;;;5.22;1.90;;;;;;;9.62;39.69;94227.28;4960892;28;20038;-77
2023/10/16 09:37:20;;;;;;;5.40;2.20;;;;;;;9.87;40.56;94266.59;4961080;28;20023;-78
2023/10/16 09:39:48;;;;;;;2.45;2.05;;;;;;;9.99;39.91;94236.84;4971037;28;20644;-78
2023/10/16 09:42:14;;;;;;;1.95;1.80;;;;;;;10.41;38.59;94267.59;4976905;28;20508;-77
2023/10/16 09:45:29;;;;;;;2.58;1.83;;;;;;;10.46;38.56;94252.31;4958190;28;20042;-77
2023/10/16 09:47:35;;;;;;;4.47;1.73;;;;;;;10.47;39.12;94258.41;4959426;28;20470;-77
2023/10/16 09:50:16;;;;;;;3.20;2.20;;;;;;;10.53;39.39;94254.53;4955101;28;20035;-77
2023/10/16 09:52:47;;;;;;;5.75;1.88;;;;;;;10.76;38.84;94252.69;4958372;28;20385;-76
2023/10/16 09:55:13;;;;;;;1.65;1.40;;;;;;;10.68;38.12;94256.84;4955910;28;20033;-78
2023/10/16 09:58:23;;;;;;;4.90;1.85;;;;;;;10.64;37.77;94245.25;4960434;28;20410;-79
2023/10/16 10:01:46;;;;;;;2.80;1.73;;;;;;;10.67;37.30;94229.47;4974131;28;20038;-77
2023/10/16 10:04:45;;;;;;;3.53;1.88;;;;;;;10.38;37.38;94217.66;4970854;28;20520;-78
2023/10/16 10:08:18;;;;;;;5.90;3.25;;;;;;;9.40;38.96;94106.63;4964840;28;20053;-77
2023/10/16 10:22:01;;;;;;;2.85;1.63;;;;;;;10.66;37.02;94205.84;4970745;28;20149;-78
2023/10/16 10:25:24;;;;;;;4.53;1.95;;;;;;;10.97;37.07;94198.66;4971441;28;20467;-77
2023/10/16 10:28:41;;;;;;;2.83;1.70;;;;;;;10.98;36.75;94228.72;4934043;28;20345;-77
2023/10/16 10:32:38;;;;;;;2.75;1.83;;;;;;;10.17;36.49;94105.69;4972839;28;20063;-77
2023/10/16 10:36:03;;;;;;;4.82;2.17;;;;;;;10.70;37.75;94191.63;4944698;28;20057;-79
2023/10/16 10:39:52;;;;;;;2.92;1.65;;;;;;;10.91;37.26;94210.50;4953239;28;20057;-77
2023/10/16 10:43:22;;;;;;;2.85;1.58;;;;;;;11.16;36.72;94199.19;4947433;28;20046;-78
2023/10/16 10:46:55;;;;;;;6.10;1.58;;;;;;;11.26;36.35;94203.47;4920872;28;20069;-78
2023/10/16 10:53:36;;;;;;;2.22;1.42;;;;;;;11.34;36.21;94193.97;4957422;28;20403;-78
2023/10/16 10:57:07;;;;;;;2.13;1.70;;;;;;;11.47;36.71;94193.06;4966338;28;20042;-77
2023/10/16 11:03:53;;;;;;;2.30;2.10;;;;;;;11.72;35.30;94189.72;4973671;28;20106;-79
2023/10/16 11:07:39;;;;;;;2.80;2.60;;;;;;;11.78;34.76;94183.16;4955625;28;20136;-78
2023/10/16 11:28:48;;;;;;;3.63;1.90;;;;;;;12.26;34.82;94176.91;4910313;28;20579;-79
2023/10/16 11:32:17;;;;;;;2.85;1.23;;;;;;;12.28;33.22;94164.03;4930860;28;20135;-77
2023/10/16 11:35:19;;;;;;;2.10;1.80;;;;;;;12.26;33.39;94161.69;4923078;28;20094;-79
2023/10/16 11:38:55;;;;;;;2.25;1.88;;;;;;;11.75;34.52;94145.66;4924713;28;20039;-78
2023/10/16 11:42:04;;;;;;;1.63;1.40;;;;;;;12.30;34.12;94167.97;4919668;28;20058;-77
2023/10/16 11:45:20;;;;;;;1.65;1.55;;;;;;;12.15;33.66;94152.44;4924696;28;20043;-79
2023/10/16 11:55:36;;;;;;;3.75;1.45;;;;;;;11.91;33.02;94061.50;4940069;28;20158;-78
2023/10/16 11:58:56;;;;;;;2.30;2.03;;;;;;;12.72;32.38;94165.56;4891369;28;20211;-78
2023/10/16 12:05:28;;;;;;;3.00;1.15;;;;;;;12.58;32.25;94090.22;4871486;28;20105;-79
2023/10/16 12:08:30;;;;;;;6.43;1.70;;;;;;;12.92;33.84;94129.41;4929294;28;20102;-81
2023/10/16 12:11:57;;;;;;;1.60;1.38;;;;;;;13.08;33.68;94138.44;4926545;28;20046;-78
2023/10/16 12:15:25;;;;;;;1.80;1.20;;;;;;;13.11;32.39;94143.16;4929480;28;20054;-79
2023/10/16 12:18:47;;;;;;;4.43;1.48;;;;;;;13.17;32.63;94147.22;4910532;28;20054;-78
2023/10/16 12:22:15;;;;;;;2.55;1.40;;;;;;;13.36;33.18;94136.91;4935138;28;20098;-78
2023/10/16 12:25:23;;;;;;;2.92;1.40;;;;;;;13.46;32.26;94125.06;4940149;28;20090;-77
2023/10/16 12:32:28;;;;;;;6.15;1.50;;;;;;;13.66;33.91;94127.81;4906784;28;20215;-77
2023/10/16 12:35:47;;;;;;;4.43;1.10;;;;;;;13.86;30.70;94133.50;4927098;28;20185;-75
2023/10/16 12:39:30;;;;;;;3.70;1.20;;;;;;;13.38;30.88;94083.94;4971976;28;20185;-77
2023/10/16 12:42:43;;;;;;;7.85;2.22;;;;;;;13.61;31.42;94119.97;4936298;28;20490;-78
2023/10/16 12:50:07;;;;;;;3.20;1.33;;;;;;;13.98;31.82;94120.22;4939522;28;20603;-78
2023/10/16 12:53:32;;;;;;;5.55;1.35;;;;;;;13.58;30.35;94098.44;4927375;28;20190;-77
2023/10/16 12:56:54;;;;;;;5.43;1.40;;;;;;;13.85;30.58;94113.22;4956682;28;20042;-77
2023/10/16 13:00:21;;;;;;;2.05;1.30;;;;;;;13.75;30.19;94051.00;4959277;28;20366;-78
2023/10/16 13:04:03;;;;;;;3.42;1.90;;;;;;;14.19;31.49;94103.03;4955006;28;20451;-78
2023/10/16 13:07:03;;;;;;;5.32;1.50;;;;;;;14.25;31.27;94111.63;4956183;28;20046;-78
2023/10/16 13:10:31;;;;;;;5.82;1.30;;;;;;;13.97;30.58;94089.22;4923694;28;20108;-77
2023/10/16 13:17:35;;;;;;;3.20;1.23;;;;;;;14.45;30.27;94108.16;4933622;28;20314;-78
2023/10/16 13:24:47;;;;;;;3.67;1.20;;;;;;;14.39;30.92;94112.13;4933381;28;20036;-78
2023/10/16 13:28:23;;;;;;;2.33;1.52;;;;;;;14.43;30.61;94113.03;4947923;28;20046;-78
2023/10/16 13:32:02;;;;;;;1.75;1.38;;;;;;;14.54;29.52;94108.88;4928455;28;20056;-77
2023/10/16 13:35:40;;;;;;;3.30;1.70;;;;;;;14.44;29.50;94095.88;4960612;28;20042;-78
2023/10/16 13:38:36;;;;;;;;;;;;;;;14.57;29.89;94102.84;4947799;28;20049;-75
2023/10/16 13:41:50;;;;;;;4.15;1.40;;;;;;;14.41;28.83;94101.91;4974680;28;20229;-77
2023/10/16 13:44:37;;;;;;;2.30;1.30;;;;;;;13.99;30.03;94033.50;4957765;28;20112;-77
2023/10/16 13:47:32;;;;;;;1.23;1.13;;;;;;;14.64;30.32;94101.53;4974823;28;20101;-79
2023/10/16 13:50:28;;;;;;;2.92;1.15;;;;;;;14.67;29.62;94100.88;4962014;28;20453;-78
2023/10/16 13:53:19;;;;;;;5.53;1.48;;;;;;;14.57;30.58;94102.06;4959622;28;20043;-77
2023/10/16 13:56:30;;;;;;;2.25;1.30;;;;;;;14.77;30.20;94105.78;4964579;28;20136;-76
2023/10/16 13:59:02;;;;;;;2.50;1.60;;;;;;;14.48;29.42;94071.91;4976890;28;20037;-77
2023/10/16 14:01:46;;;;;;;3.92;1.42;;;;;;;13.84;30.71;93975.34;4982904;28;20138;-78
2023/10/16 14:04:39;;;;;;;4.10;1.55;;;;;;;14.69;31.10;94099.44;4948932;28;20046;-78
2023/10/16 14:07:36;;;;;;;1.30;1.20;;;;;;;13.92;29.50;93977.91;4945467;28;20563;-78
2023/10/16 14:11:01;;;;;;;4.18;1.48;;;;;;;14.64;30.58;94096.19;4971901;28;20050;-78
2023/10/16 14:14:10;;;;;;;2.50;1.20;;;;;;;14.55;29.46;94091.72;4972279;28;20038;-78
2023/10/16 14:17:24;;;;;;;2.92;1.33;;;;;;;14.64;29.95;94106.88;4975952;28;20049;-77
2023/10/16 14:19:52;;;;;;;7.72;1.73;;;;;;;14.36;31.90;94070.00;4970159;28;20050;-78
2023/10/16 14:22:47;;;;;;;4.65;1.30;;;;;;;14.11;31.05;94020.19;4969894;28;20496;-78
2023/10/16 14:26:11;;;;;;;2.67;0.98;;;;;;;14.56;31.85;94082.56;4961719;28;20050;-77
2023/10/16 14:28:59;;;;;;;2.30;1.25;;;;;;;14.79;32.45;94098.22;4926254;28;20047;-78
2023/10/16 14:32:02;;;;;;;1.73;1.20;;;;;;;14.27;32.23;94007.78;4934048;28;20099;-77
2023/10/16 14:34:46;;;;;;;2.15;1.95;;;;;;;14.63;33.33;94083.91;4912960;28;20537;-77
2023/10/16 14:37:38;;;;;;;2.72;1.70;;;;;;;14.34;29.42;94074.88;4908500;28;20205;-79
2023/10/16 14:40:51;;;;;;;2.40;1.30;;;;;;;14.24;29.76;94059.25;4930564;28;20046;-76
2023/10/16 14:43:50;;;;;;;2.85;1.15;;;;;;;14.44;31.86;94117.28;4943512;28;20452;-78
2023/10/16 14:46:36;;;;;;;4.25;1.33;;;;;;;14.21;29.59;94085.88;4929719;28;20051;-78
2023/10/16 14:49:30;;;;;;;2.97;1.30;;;;;;;13.96;29.48;94114.41;4933802;28;20043;-77
2023/10/16 14:52:28;;;;;;;1.80;1.10;;;;;;;13.42;29.64;94084.88;4930241;28;20093;-76
2023/10/16 14:55:53;;;;;;;5.00;1.50;;;;;;;13.43;29.55;94118.50;4940731;28;20047;-78
2023/10/16 14:59:49;;;;;;;1.35;1.20;;;;;;;13.36;30.31;94120.88;4921458;28;20137;-78
2023/10/16 15:03:24;;;;;;;3.70;1.38;;;;;;;13.36;30.11;94126.22;4942122;28;20047;-77
2023/10/16 15:06:49;;;;;;;3.50;1.60;;;;;;;13.38;30.38;94125.91;4945492;28;20567;-77
2023/10/16 15:10:12;;;;;;;3.90;1.48;;;;;;;13.40;31.54;94129.06;4950282;28;20058;-77
2023/10/16 15:13:51;;;;;;;4.10;1.40;;;;;;;13.31;30.52;94121.84;4944778;28;20587;-78
2023/10/16 15:17:44;;;;;;;5.18;1.40;;;;;;;12.97;30.66;94081.16;4970387;28;20057;-76
2023/10/16 15:21:27;;;;;;;5.05;1.48;;;;;;;13.14;31.41;94148.66;4919989;28;20046;-76
2023/10/16 15:25:04;;;;;;;4.40;2.42;;;;;;;13.02;32.27;94155.75;4956416;28;20100;-77
2023/10/16 15:28:31;;;;;;;16.52;4.97;;;;;;;13.05;32.88;94149.78;4952751;28;20594;-79
2023/10/16 15:32:15;;;;;;;6.18;3.08;;;;;;;12.69;32.54;94086.16;4967901;28;20074;-77
2023/10/16 15:35:51;;;;;;;7.03;3.03;;;;;;;13.11;32.29;94157.28;4879664;28;20078;-77
2023/10/16 15:39:15;;;;;;;7.15;2.97;;;;;;;12.20;32.77;94060.81;4958747;28;20058;-78
2023/10/16 15:43:03;;;;;;;5.60;2.80;;;;;;;12.86;31.91;94145.59;4945741;28;20082;-77
2023/10/16 15:46:48;;;;;;;4.30;2.38;;;;;;;12.33;32.02;94081.19;4961654;28;20049;-79
2023/10/16 15:50:31;;;;;;;8.20;2.22;;;;;;;12.58;32.25;94136.41;4930185;28;20038;-76
2023/10/16 15:54:05;;;;;;;6.10;2.28;;;;;;;12.86;32.25;94196.31;4899697;28;20087;-77
2023/10/16 15:57:34;;;;;;;2.88;2.17;;;;;;;12.88;32.17;94202.13;4945687;28;20416;-75
2023/10/16 16:00:38;;;;;;;5.20;2.10;;;;;;;12.08;32.07;94084.69;4950320;28;20042;-78
2023/10/16 16:03:46;;;;;;;7.05;2.38;;;;;;;12.78;31.52;94207.78;4939870;28;20054;-77
2023/10/16 16:07:24;;;;;;;8.18;2.28;;;;;;;12.66;31.67;94191.66;4937316;28;20272;-78
2023/10/16 16:10:55;;;;;;;3.00;1.73;;;;;;;12.67;31.23;94208.44;4933058;28;20069;-78
2023/10/16 16:14:03;;;;;;;8.75;2.72;;;;;;;12.55;31.46;94203.72;4959415;28;20038;-77
2023/10/16 16:17:46;;;;;;;13.75;5.35;;;;;;;12.66;31.70;94218.34;4944114;28;20121;-77
2023/10/16 16:21:04;;;;;;;4.75;2.53;;;;;;;12.60;31.41;94230.28;4958829;28;20423;-78
2023/10/16 16:24:28;;;;;;;4.07;2.65;;;;;;;12.20;31.75;94178.16;4935406;28;20457;-76